This is the latest recevied weather packets stored in our database for station/object K42C. If no packets are shown the sender has not sent any weather packets the latest 10 day(s).
| Time | Temp. | Humidity | Pressure | Rain* | Wind** | Luminosity | Snow |
|---|---|---|---|---|---|---|---|
| 1778004245 | 12.78° C | 43% | 970.3 hPa | 0 mm | 2.68 m/s, 338° | - | - |
| 1778003844 | 12.78° C | 42% | 970.2 hPa | 0 mm | 3.13 m/s, 278° | - | - |
| 1778003446 | 12.78° C | 43% | 970.3 hPa | 0 mm | 3.13 m/s, 288° | - | - |
| 1778003046 | 12.22° C | 44% | 970 hPa | 0 mm | 2.68 m/s, 263° | - | - |
| 1778002648 | 12.22° C | 46% | 969.9 hPa | 0 mm | 1.79 m/s, 262° | - | - |
| 1778001850 | 12.22° C | 44% | 969.9 hPa | 0 mm | 2.68 m/s, 285° | - | - |
| 1778001449 | 12.22° C | 44% | 969.9 hPa | 0 mm | 3.58 m/s, 322° | - | - |
| 1778001052 | 12.22° C | 44% | 969.9 hPa | 0 mm | 4.47 m/s, 263° | - | - |
| 1778000651 | 11.67° C | 46% | 970 hPa | 0 mm | 1.79 m/s, 342° | - | - |
| 1778000254 | 12.22° C | 44% | 970 hPa | 0 mm | 3.58 m/s, 252° | - | - |
| 1777999853 | 12.22° C | 44% | 969.9 hPa | 0 mm | 1.79 m/s, 262° | - | - |
| 1777999456 | 12.22° C | 44% | 970 hPa | 0 mm | 1.79 m/s, 297° | - | - |
| 1777999055 | 12.22° C | 43% | 970.1 hPa | 0 mm | 2.68 m/s, 270° | - | - |
| 1777998658 | 11.67° C | 45% | 970.1 hPa | 0 mm | 2.68 m/s, 328° | - | - |
| 1777998257 | 11.67° C | 43% | 970.2 hPa | 0 mm | 2.24 m/s, 318° | - | - |
| 1777997859 | 11.67° C | 45% | 970.2 hPa | 0 mm | 1.79 m/s, 259° | - | - |
| 1777997459 | 11.67° C | 44% | 970.2 hPa | 0 mm | 3.58 m/s, 307° | - | - |
| 1777997061 | 11.67° C | 43% | 970.3 hPa | 0 mm | 4.47 m/s, 245° | - | - |
| 1777996660 | 11.67° C | 43% | 970.1 hPa | 0 mm | 4.02 m/s, 294° | - | - |
| 1777995862 | 11.11° C | 46% | 970.3 hPa | 0 mm | 2.68 m/s, 252° | - | - |
| 1777995465 | 11.11° C | 47% | 970.3 hPa | 0 mm | 0.89 m/s, 319° | - | - |
| 1777995064 | 10.56° C | 47% | 970.3 hPa | 0 mm | 3.13 m/s, 243° | - | - |
| 1777994667 | 10.56° C | 47% | 970.6 hPa | 0 mm | 3.13 m/s, 316° | - | - |
| 1777994266 | 10.56° C | 46% | 970.5 hPa | 0 mm | 2.68 m/s, 177° | - | - |
| 1777993869 | 10.56° C | 47% | 970.5 hPa | 0 mm | 3.13 m/s, 305° | - | - |
* Rain latest hour (hover to see other rain measurements)
** Current wind speed in m/s (hover to see current wind gust speed)